createdAt,value
2024-03-24T00:00:14.816Z,2.84
2024-03-24T00:01:14.869Z,2.84
2024-03-24T00:02:14.818Z,2.81
2024-03-24T00:03:15.023Z,2.77
2024-03-24T00:04:15.496Z,2.76
2024-03-24T00:05:14.769Z,2.71
2024-03-24T00:06:14.817Z,2.73
2024-03-24T00:07:14.707Z,2.67
2024-03-24T00:08:14.714Z,2.66
2024-03-24T00:09:14.671Z,2.66
2024-03-24T00:10:14.788Z,2.64
2024-03-24T00:11:14.692Z,2.69
2024-03-24T00:12:14.664Z,2.67
2024-03-24T00:13:14.646Z,2.64
2024-03-24T00:14:14.626Z,2.69
2024-03-24T00:15:14.634Z,2.66
2024-03-24T00:16:14.703Z,2.63
2024-03-24T00:17:14.646Z,2.64
2024-03-24T00:18:14.654Z,2.66
2024-03-24T00:19:14.552Z,2.70
2024-03-24T00:20:14.663Z,2.76
2024-03-24T00:21:14.513Z,2.74
2024-03-24T00:22:14.496Z,2.73
2024-03-24T00:23:14.738Z,2.77
2024-03-24T00:24:14.508Z,2.76
2024-03-24T00:25:14.648Z,2.82
2024-03-24T00:26:14.654Z,2.81
2024-03-24T00:27:14.472Z,2.76
2024-03-24T00:28:14.746Z,2.73
2024-03-24T00:29:14.423Z,2.73
2024-03-24T00:30:14.596Z,2.70
2024-03-24T00:31:14.411Z,2.67
2024-03-24T00:32:14.507Z,2.58
2024-03-24T00:33:14.340Z,2.58
2024-03-24T00:34:14.377Z,2.59
2024-03-24T00:35:14.389Z,2.58
2024-03-24T00:36:14.383Z,2.71
2024-03-24T00:37:14.412Z,2.77
2024-03-24T00:38:14.309Z,2.76
2024-03-24T00:39:14.269Z,2.74
2024-03-24T00:40:14.256Z,2.71
2024-03-24T00:41:14.326Z,2.71
2024-03-24T00:42:14.857Z,2.71
2024-03-24T00:43:14.229Z,2.73
2024-03-24T00:44:14.295Z,2.71
2024-03-24T00:45:14.205Z,2.64
2024-03-24T00:46:14.196Z,2.63
2024-03-24T00:47:14.160Z,2.59
2024-03-24T00:48:14.213Z,2.56
2024-03-24T00:49:14.113Z,2.59
2024-03-24T00:50:14.162Z,2.59
2024-03-24T00:51:14.095Z,2.69
2024-03-24T00:52:14.085Z,2.73
2024-03-24T00:53:14.069Z,2.73
2024-03-24T00:54:14.071Z,2.70
2024-03-24T00:55:14.050Z,2.71
2024-03-24T00:56:14.080Z,2.73
2024-03-24T00:57:14.013Z,2.79
2024-03-24T00:58:13.994Z,2.84
2024-03-24T00:59:14.052Z,2.85
2024-03-24T01:00:14.026Z,2.84
2024-03-24T01:01:13.946Z,2.87
2024-03-24T01:02:13.974Z,2.84
2024-03-24T01:03:14.148Z,2.84
2024-03-24T01:04:13.917Z,2.87
2024-03-24T01:05:13.996Z,2.89
2024-03-24T01:06:13.889Z,2.87
2024-03-24T01:07:13.868Z,2.97
2024-03-24T01:08:13.938Z,3.00
2024-03-24T01:09:13.852Z,3.02
2024-03-24T01:10:13.869Z,3.03
2024-03-24T01:11:13.863Z,3.02
2024-03-24T01:12:13.868Z,3.02
2024-03-24T01:13:13.808Z,2.98
2024-03-24T01:14:13.830Z,3.06
2024-03-24T01:15:34.761Z,3.06
2024-03-24T01:16:13.756Z,3.07
2024-03-24T01:17:13.735Z,3.05
2024-03-24T01:18:13.838Z,3.07
2024-03-24T01:19:13.720Z,3.07
2024-03-24T01:20:13.785Z,3.05
2024-03-24T01:21:13.701Z,3.09
2024-03-24T01:22:13.833Z,3.10
2024-03-24T01:23:13.671Z,3.16
2024-03-24T01:24:13.894Z,3.16
2024-03-24T01:25:15.641Z,3.12
2024-03-24T01:26:13.765Z,3.07
2024-03-24T01:27:13.772Z,3.09
2024-03-24T01:28:13.672Z,3.09
2024-03-24T01:29:13.580Z,3.09
2024-03-24T01:30:13.591Z,3.09
2024-03-24T01:31:13.555Z,3.07
2024-03-24T01:32:13.592Z,3.07
2024-03-24T01:33:13.529Z,3.07
2024-03-24T01:34:13.604Z,3.10
2024-03-24T01:35:13.556Z,3.12
2024-03-24T01:36:13.480Z,3.12
2024-03-24T01:37:14.130Z,3.12
2024-03-24T01:38:13.611Z,3.07
2024-03-24T01:39:13.455Z,3.07
2024-03-24T01:40:13.693Z,3.07
2024-03-24T01:41:13.469Z,3.07
2024-03-24T01:42:13.390Z,3.05
2024-03-24T01:43:13.630Z,3.05
2024-03-24T01:44:13.367Z,3.03
2024-03-24T01:45:13.391Z,3.02
2024-03-24T01:46:13.380Z,3.06
2024-03-24T01:47:13.360Z,3.10
2024-03-24T01:48:13.557Z,3.12
2024-03-24T01:49:13.323Z,3.10
2024-03-24T01:50:13.299Z,3.15
2024-03-24T01:51:13.337Z,3.15
2024-03-24T01:52:13.426Z,3.15
2024-03-24T01:53:13.538Z,3.12
2024-03-24T01:54:13.420Z,3.13
2024-03-24T01:55:13.359Z,3.13
2024-03-24T01:56:13.204Z,3.18
2024-03-24T01:57:13.221Z,3.18
2024-03-24T01:58:13.275Z,3.23
2024-03-24T01:59:13.168Z,3.24
2024-03-24T02:00:13.193Z,3.27
2024-03-24T02:01:13.246Z,3.27
2024-03-24T02:02:13.121Z,3.30
2024-03-24T02:03:13.737Z,3.31
2024-03-24T02:04:13.305Z,3.36
2024-03-24T02:05:13.141Z,3.39
2024-03-24T02:06:13.093Z,3.39
2024-03-24T02:07:13.069Z,3.36
2024-03-24T02:08:13.340Z,3.34
2024-03-24T02:09:13.201Z,3.36
2024-03-24T02:10:13.129Z,3.40
2024-03-24T02:11:13.054Z,3.43
2024-03-24T02:12:13.037Z,3.44
2024-03-24T02:13:13.023Z,3.44
2024-03-24T02:14:13.070Z,3.44
2024-03-24T02:15:12.959Z,3.46
2024-03-24T02:16:12.981Z,3.49
2024-03-24T02:17:12.944Z,3.52
2024-03-24T02:18:12.959Z,3.57
2024-03-24T02:19:12.889Z,3.58
2024-03-24T02:20:12.908Z,3.54
2024-03-24T02:21:12.943Z,3.53
2024-03-24T02:22:12.967Z,3.57
2024-03-24T02:23:12.826Z,3.57
2024-03-24T02:24:12.900Z,3.58
2024-03-24T02:25:12.916Z,3.61
2024-03-24T02:26:12.779Z,3.60
2024-03-24T02:27:12.888Z,3.61
2024-03-24T02:28:12.787Z,3.62
2024-03-24T02:29:12.893Z,3.62
2024-03-24T02:30:12.752Z,3.64
2024-03-24T02:31:12.746Z,3.67
2024-03-24T02:32:12.710Z,3.68
2024-03-24T02:33:12.690Z,3.72
2024-03-24T02:34:12.702Z,3.72
2024-03-24T02:35:12.700Z,3.72
2024-03-24T02:36:12.649Z,3.78
2024-03-24T02:37:12.654Z,3.80
2024-03-24T02:38:12.759Z,3.85
2024-03-24T02:39:12.644Z,3.86
2024-03-24T02:40:12.643Z,3.88
2024-03-24T02:41:12.630Z,3.88
2024-03-24T02:42:12.665Z,3.90
2024-03-24T02:43:12.588Z,3.94
2024-03-24T02:44:12.552Z,3.97
2024-03-24T02:45:12.539Z,4.00
2024-03-24T02:46:12.627Z,4.03
2024-03-24T02:47:12.525Z,4.03
2024-03-24T02:48:12.477Z,4.03
2024-03-24T02:49:12.652Z,4.03
2024-03-24T02:50:12.446Z,4.04
2024-03-24T02:51:13.026Z,4.06
2024-03-24T02:52:12.450Z,4.07
2024-03-24T02:53:12.436Z,4.07
2024-03-24T02:54:12.397Z,4.06
2024-03-24T02:55:12.508Z,4.06
2024-03-24T02:56:12.406Z,4.03
2024-03-24T02:57:12.361Z,4.03
2024-03-24T02:58:12.464Z,4.04
2024-03-24T02:59:12.396Z,4.03
2024-03-24T03:00:12.385Z,4.01
2024-03-24T03:01:12.346Z,4.01
2024-03-24T03:02:12.284Z,4.03
2024-03-24T03:03:12.423Z,4.06
2024-03-24T03:04:12.314Z,4.04
2024-03-24T03:05:12.243Z,4.00
2024-03-24T03:06:12.234Z,3.98
2024-03-24T03:07:12.228Z,3.97
2024-03-24T03:08:12.225Z,3.96
2024-03-24T03:09:12.189Z,3.94
2024-03-24T03:10:12.225Z,3.94
2024-03-24T03:11:12.199Z,3.96
2024-03-24T03:12:12.167Z,3.98
2024-03-24T03:13:12.134Z,4.01
2024-03-24T03:14:12.125Z,4.01
2024-03-24T03:15:12.116Z,4.03
2024-03-24T03:16:12.238Z,4.01
2024-03-24T03:17:12.095Z,4.00
2024-03-24T03:18:12.070Z,3.98
2024-03-24T03:19:12.064Z,3.98
2024-03-24T03:20:12.126Z,3.98
2024-03-24T03:21:12.043Z,4.03
2024-03-24T03:22:12.039Z,4.03
2024-03-24T03:23:11.998Z,4.03
2024-03-24T03:24:12.064Z,4.03
2024-03-24T03:25:12.015Z,4.03
2024-03-24T03:26:11.953Z,4.06
2024-03-24T03:27:11.951Z,4.08
2024-03-24T03:28:11.982Z,4.14
2024-03-24T03:29:11.956Z,4.15
2024-03-24T03:30:11.906Z,4.18
2024-03-24T03:31:11.927Z,4.19
2024-03-24T03:32:11.866Z,4.21
2024-03-24T03:33:11.898Z,4.18
2024-03-24T03:34:11.942Z,4.18
2024-03-24T03:35:11.882Z,4.18
2024-03-24T03:36:11.840Z,4.18
2024-03-24T03:37:11.821Z,4.18
2024-03-24T03:38:11.835Z,4.19
2024-03-24T03:39:11.792Z,4.22
2024-03-24T03:40:11.790Z,4.21
2024-03-24T03:41:11.765Z,4.19
2024-03-24T03:42:11.802Z,4.16
2024-03-24T03:43:11.752Z,4.12
2024-03-24T03:44:11.743Z,4.07
2024-03-24T03:45:11.724Z,4.03
2024-03-24T03:46:11.702Z,4.01
2024-03-24T03:47:11.706Z,4.00
2024-03-24T03:48:11.706Z,3.97
2024-03-24T03:49:11.652Z,3.97
2024-03-24T03:50:11.653Z,3.96
2024-03-24T03:51:11.634Z,3.96
2024-03-24T03:52:11.618Z,3.97
2024-03-24T03:53:11.640Z,4.01
2024-03-24T03:54:11.589Z,4.03
2024-03-24T03:55:11.570Z,4.04
2024-03-24T03:56:11.569Z,4.03
2024-03-24T03:57:11.552Z,4.03
2024-03-24T03:58:11.538Z,4.06
2024-03-24T03:59:11.517Z,4.07
2024-03-24T04:00:11.516Z,4.08
2024-03-24T04:01:11.475Z,4.12
2024-03-24T04:02:11.510Z,4.15
2024-03-24T04:03:11.699Z,4.19
2024-03-24T04:04:11.468Z,4.21
2024-03-24T04:05:11.523Z,4.22
2024-03-24T04:06:11.512Z,4.25
2024-03-24T04:07:11.447Z,4.25
2024-03-24T04:08:11.484Z,4.25
2024-03-24T04:09:11.416Z,4.25
2024-03-24T04:10:11.379Z,4.25
2024-03-24T04:11:11.386Z,4.26
2024-03-24T04:12:11.394Z,4.29
2024-03-24T04:13:11.322Z,4.28
2024-03-24T04:14:11.382Z,4.26
2024-03-24T04:15:11.313Z,4.29
2024-03-24T04:16:11.367Z,4.29
2024-03-24T04:17:11.268Z,4.32
2024-03-24T04:18:11.292Z,4.33
2024-03-24T04:19:11.266Z,4.36
2024-03-24T04:20:11.323Z,4.34
2024-03-24T04:21:11.395Z,4.34
2024-03-24T04:22:11.271Z,4.34
2024-03-24T04:23:11.203Z,4.36
2024-03-24T04:24:11.244Z,4.36
2024-03-24T04:25:11.186Z,4.34
2024-03-24T04:26:11.168Z,4.34
2024-03-24T04:27:11.139Z,4.36
2024-03-24T04:28:11.110Z,4.37
2024-03-24T04:29:11.150Z,4.39
2024-03-24T04:30:11.109Z,4.42
2024-03-24T04:31:11.096Z,4.43
2024-03-24T04:32:11.105Z,4.43
2024-03-24T04:33:11.734Z,4.44
2024-03-24T04:34:11.265Z,4.46
2024-03-24T04:35:11.030Z,4.44
2024-03-24T04:36:11.379Z,4.46
2024-03-24T04:37:11.048Z,4.44
2024-03-24T04:38:11.108Z,4.43
2024-03-24T04:39:11.011Z,4.42
2024-03-24T04:40:11.115Z,4.39
2024-03-24T04:41:12.238Z,4.39
2024-03-24T04:42:10.972Z,4.39
2024-03-24T04:43:11.119Z,4.39
2024-03-24T04:44:10.943Z,4.39
2024-03-24T04:45:10.938Z,4.37
2024-03-24T04:46:10.992Z,4.36
2024-03-24T04:47:10.968Z,4.37
2024-03-24T04:48:10.916Z,4.37
2024-03-24T04:49:10.976Z,4.39
2024-03-24T04:50:10.880Z,4.42
2024-03-24T04:51:10.846Z,4.43
2024-03-24T04:52:10.816Z,4.43
2024-03-24T04:53:10.826Z,4.46
2024-03-24T04:54:10.785Z,4.51
2024-03-24T04:55:10.906Z,4.52
2024-03-24T04:56:10.764Z,4.55
2024-03-24T04:57:10.998Z,4.58
2024-03-24T04:58:10.714Z,4.61
2024-03-24T04:59:10.772Z,4.64
2024-03-24T05:00:10.687Z,4.64
2024-03-24T05:01:10.786Z,4.65
2024-03-24T05:02:10.698Z,4.67
2024-03-24T05:03:10.874Z,4.69
2024-03-24T05:04:10.672Z,4.72
2024-03-24T05:05:10.672Z,4.70
2024-03-24T05:06:10.842Z,4.76
2024-03-24T05:07:10.594Z,4.77
2024-03-24T05:08:10.574Z,4.77
2024-03-24T05:09:10.613Z,4.77
2024-03-24T05:10:10.535Z,4.79
2024-03-24T05:11:10.561Z,4.79
2024-03-24T05:12:10.550Z,4.80
2024-03-24T05:13:10.575Z,4.83
2024-03-24T05:14:10.530Z,4.84
2024-03-24T05:15:10.486Z,4.86
2024-03-24T05:16:10.466Z,4.86
2024-03-24T05:17:10.450Z,4.88
2024-03-24T05:18:10.588Z,4.89
2024-03-24T05:19:10.451Z,4.91
2024-03-24T05:20:10.426Z,4.89
2024-03-24T05:21:10.424Z,4.92
2024-03-24T05:22:10.464Z,4.92
2024-03-24T05:23:10.349Z,4.95
2024-03-24T05:24:10.347Z,4.98
2024-03-24T05:25:10.346Z,4.99
2024-03-24T05:26:10.508Z,4.99
2024-03-24T05:27:10.316Z,5.01
2024-03-24T05:28:10.318Z,5.02
2024-03-24T05:29:10.274Z,5.02
2024-03-24T05:30:10.311Z,5.04
2024-03-24T05:31:10.302Z,5.07
2024-03-24T05:32:10.234Z,5.09
2024-03-24T05:33:10.230Z,5.12
2024-03-24T05:34:10.224Z,5.13
2024-03-24T05:35:10.210Z,5.14
2024-03-24T05:36:10.261Z,5.16
2024-03-24T05:37:10.181Z,5.19
2024-03-24T05:38:10.142Z,5.20
2024-03-24T05:39:10.137Z,5.20
2024-03-24T05:40:10.212Z,5.20
2024-03-24T05:41:10.153Z,5.20
2024-03-24T05:42:10.088Z,5.22
2024-03-24T05:43:10.132Z,5.23
2024-03-24T05:44:10.073Z,5.27
2024-03-24T05:45:10.349Z,5.25
2024-03-24T05:46:10.078Z,5.27
2024-03-24T05:47:10.156Z,5.25
2024-03-24T05:48:10.183Z,5.25
2024-03-24T05:49:10.136Z,5.27
2024-03-24T05:50:10.503Z,5.28
2024-03-24T05:51:10.043Z,5.28
2024-03-24T05:52:10.022Z,5.28
2024-03-24T05:53:10.276Z,5.30
2024-03-24T05:54:10.083Z,5.31
2024-03-24T05:55:10.451Z,5.32
2024-03-24T05:56:10.141Z,5.32
2024-03-24T05:57:09.905Z,5.34
2024-03-24T05:58:09.838Z,5.35
2024-03-24T05:59:09.899Z,5.34
2024-03-24T06:00:10.022Z,5.34
2024-03-24T06:01:10.262Z,5.37
2024-03-24T06:02:09.812Z,5.38
2024-03-24T06:03:09.947Z,5.38
2024-03-24T06:04:09.921Z,5.40
2024-03-24T06:05:09.751Z,5.38
2024-03-24T06:06:09.787Z,5.38
2024-03-24T06:07:10.465Z,5.38
2024-03-24T06:08:09.746Z,5.38
2024-03-24T06:09:09.739Z,5.38
2024-03-24T06:10:09.736Z,5.40
2024-03-24T06:11:09.710Z,5.38
2024-03-24T06:12:09.670Z,5.40
2024-03-24T06:13:09.669Z,5.40
2024-03-24T06:14:10.807Z,5.38
2024-03-24T06:15:09.639Z,5.38
2024-03-24T06:16:09.599Z,5.40
2024-03-24T06:17:09.675Z,5.40
2024-03-24T06:18:09.603Z,5.40
2024-03-24T06:19:11.820Z,5.41
2024-03-24T06:20:09.631Z,5.40
2024-03-24T06:21:09.825Z,5.41
2024-03-24T06:22:09.629Z,5.43
2024-03-24T06:23:09.532Z,5.41
2024-03-24T06:24:09.486Z,5.41
2024-03-24T06:25:09.642Z,5.43
2024-03-24T06:26:09.504Z,5.41
2024-03-24T06:27:09.552Z,5.40
2024-03-24T06:28:09.479Z,5.38
2024-03-24T06:29:09.910Z,5.41
2024-03-24T06:30:09.723Z,5.40
2024-03-24T06:31:11.005Z,5.40
2024-03-24T06:32:09.389Z,5.41
2024-03-24T06:33:09.419Z,5.40
2024-03-24T06:34:09.434Z,5.43
2024-03-24T06:35:09.373Z,5.43
2024-03-24T06:36:09.367Z,5.43
2024-03-24T06:37:09.314Z,5.46
2024-03-24T06:38:09.310Z,5.46
2024-03-24T06:39:09.355Z,5.49
2024-03-24T06:40:09.312Z,5.49
2024-03-24T06:41:09.316Z,5.49
2024-03-24T06:42:09.382Z,5.50
2024-03-24T06:43:09.272Z,5.50
2024-03-24T06:44:09.333Z,5.50
2024-03-24T06:45:09.195Z,5.50
2024-03-24T06:46:09.158Z,5.50
2024-03-24T06:47:09.308Z,5.53
2024-03-24T06:48:09.350Z,5.53
2024-03-24T06:49:09.201Z,5.56
2024-03-24T06:50:09.159Z,5.57
2024-03-24T06:51:09.108Z,5.59
2024-03-24T06:52:09.115Z,5.59
2024-03-24T06:53:09.118Z,5.60
2024-03-24T06:54:09.097Z,5.63
2024-03-24T06:55:09.048Z,5.63
2024-03-24T06:56:09.120Z,5.66
2024-03-24T06:57:09.049Z,5.66
2024-03-24T06:58:08.985Z,5.64
2024-03-24T06:59:09.049Z,5.67
2024-03-24T07:00:08.986Z,5.66
2024-03-24T07:01:08.980Z,5.70
2024-03-24T07:02:08.991Z,5.71
2024-03-24T07:03:09.101Z,5.70
2024-03-24T07:04:08.971Z,5.70
2024-03-24T07:05:08.896Z,5.71
2024-03-24T07:06:09.228Z,5.74
2024-03-24T07:07:08.938Z,5.75
2024-03-24T07:08:09.121Z,5.75
2024-03-24T07:09:08.965Z,5.75
2024-03-24T07:10:08.912Z,5.81
2024-03-24T07:11:08.858Z,5.83
2024-03-24T07:12:08.851Z,5.88
2024-03-24T07:13:08.876Z,5.91
2024-03-24T07:14:08.798Z,5.95
2024-03-24T07:15:08.803Z,5.96
2024-03-24T07:16:08.769Z,5.95
2024-03-24T07:17:08.737Z,5.92
2024-03-24T07:18:08.742Z,5.91
2024-03-24T07:19:08.725Z,5.91
2024-03-24T07:20:08.699Z,5.91
2024-03-24T07:21:08.665Z,5.89
2024-03-24T07:22:08.686Z,5.85
2024-03-24T07:23:08.767Z,5.86
2024-03-24T07:24:08.743Z,5.89
2024-03-24T07:25:08.662Z,5.93
2024-03-24T07:26:08.641Z,5.92
2024-03-24T07:27:08.601Z,5.91
2024-03-24T07:28:08.596Z,5.93
2024-03-24T07:29:08.611Z,5.98
2024-03-24T07:30:08.559Z,5.96
2024-03-24T07:31:08.582Z,5.98
2024-03-24T07:32:08.554Z,6.03
2024-03-24T07:33:08.520Z,6.06
2024-03-24T07:34:08.530Z,6.07
2024-03-24T07:35:08.496Z,6.07
2024-03-24T07:36:08.476Z,6.03
2024-03-24T07:37:08.667Z,6.03
2024-03-24T07:38:08.454Z,6.03
2024-03-24T07:39:08.451Z,6.03
2024-03-24T07:40:08.475Z,6.04
2024-03-24T07:41:08.552Z,6.06
2024-03-24T07:42:08.409Z,6.10
2024-03-24T07:43:08.403Z,6.18
2024-03-24T07:44:08.389Z,6.21
2024-03-24T07:45:08.397Z,6.25
2024-03-24T07:46:08.346Z,6.26
2024-03-24T07:47:08.398Z,6.25
2024-03-24T07:48:08.367Z,6.25
2024-03-24T07:49:08.270Z,6.32
2024-03-24T07:50:08.317Z,6.47
2024-03-24T07:51:08.344Z,6.53
2024-03-24T07:52:08.250Z,6.59
2024-03-24T07:53:08.214Z,6.69
2024-03-24T07:54:08.234Z,6.73
2024-03-24T07:55:08.189Z,6.73
2024-03-24T07:56:08.291Z,6.69
2024-03-24T07:57:08.160Z,6.72
2024-03-24T07:58:08.159Z,6.84
2024-03-24T07:59:08.144Z,6.98
2024-03-24T08:00:08.413Z,7.02
2024-03-24T08:01:08.135Z,7.05
2024-03-24T08:02:08.141Z,7.01
2024-03-24T08:03:08.326Z,6.84
2024-03-24T08:04:08.084Z,6.77
2024-03-24T08:05:08.057Z,6.72
2024-03-24T08:06:08.081Z,6.68
2024-03-24T08:07:08.050Z,6.65
2024-03-24T08:08:08.049Z,6.65
2024-03-24T08:09:08.143Z,6.62
2024-03-24T08:10:08.009Z,6.68
2024-03-24T08:11:08.004Z,6.84
2024-03-24T08:12:07.992Z,7.04
2024-03-24T08:13:07.947Z,7.08
2024-03-24T08:14:07.951Z,7.05
2024-03-24T08:15:07.905Z,7.05
2024-03-24T08:16:07.898Z,7.12
2024-03-24T08:17:07.994Z,7.32
2024-03-24T08:18:07.890Z,7.55
2024-03-24T08:19:07.868Z,7.67
2024-03-24T08:20:07.929Z,7.67
2024-03-24T08:21:07.868Z,7.72
2024-03-24T08:22:07.825Z,7.72
2024-03-24T08:23:07.830Z,7.66
2024-03-24T08:24:07.840Z,7.69
2024-03-24T08:25:07.800Z,7.77
2024-03-24T08:26:07.760Z,7.77
2024-03-24T08:27:07.746Z,7.69
2024-03-24T08:28:07.739Z,7.66
2024-03-24T08:29:07.743Z,7.62
2024-03-24T08:30:07.774Z,7.59
2024-03-24T08:31:07.709Z,7.77
2024-03-24T08:32:07.699Z,8.02
2024-03-24T08:33:07.647Z,8.11
2024-03-24T08:34:07.682Z,8.17
2024-03-24T08:35:07.637Z,8.22
2024-03-24T08:36:07.678Z,8.42
2024-03-24T08:37:07.595Z,8.39
2024-03-24T08:38:07.597Z,8.40
2024-03-24T08:39:07.589Z,8.28
2024-03-24T08:40:07.642Z,8.20
2024-03-24T08:41:07.608Z,8.22
2024-03-24T08:42:07.536Z,8.25
2024-03-24T08:43:07.526Z,8.18
2024-03-24T08:44:07.554Z,8.14
2024-03-24T08:45:07.528Z,8.18
2024-03-24T08:46:07.537Z,8.39
2024-03-24T08:47:07.462Z,8.53
2024-03-24T08:48:07.473Z,8.75
2024-03-24T08:49:07.442Z,8.75
2024-03-24T08:50:07.514Z,8.84
2024-03-24T08:51:07.450Z,8.68
2024-03-24T08:52:07.406Z,8.63
2024-03-24T08:53:07.424Z,8.63
2024-03-24T08:54:07.387Z,8.65
2024-03-24T08:55:07.362Z,8.65
2024-03-24T08:56:07.393Z,8.62
2024-03-24T08:57:07.350Z,8.60
2024-03-24T08:58:07.346Z,8.62
2024-03-24T08:59:07.303Z,8.62
2024-03-24T09:00:07.434Z,8.81
2024-03-24T09:01:07.297Z,9.05
2024-03-24T09:02:07.254Z,9.32
2024-03-24T09:03:07.412Z,9.45
2024-03-24T09:04:07.303Z,9.45
2024-03-24T09:05:07.215Z,9.63
2024-03-24T09:06:07.211Z,9.68
2024-03-24T09:07:07.364Z,9.61
2024-03-24T09:08:07.243Z,9.60
2024-03-24T09:09:07.183Z,9.66
2024-03-24T09:10:07.169Z,9.61
2024-03-24T09:11:07.162Z,9.56
2024-03-24T09:12:07.758Z,9.43
2024-03-24T09:13:07.161Z,9.31
2024-03-24T09:14:07.311Z,9.31
2024-03-24T09:15:07.078Z,9.25
2024-03-24T09:16:07.878Z,9.27
2024-03-24T09:17:07.076Z,9.32
2024-03-24T09:18:07.190Z,9.25
2024-03-24T09:19:07.165Z,9.27
2024-03-24T09:20:07.030Z,9.28
2024-03-24T09:21:06.994Z,9.27
2024-03-24T09:22:07.019Z,9.38
2024-03-24T09:23:07.167Z,9.46
2024-03-24T09:24:06.988Z,9.52
2024-03-24T09:25:06.978Z,9.50
2024-03-24T09:26:06.948Z,9.45
2024-03-24T09:27:06.977Z,9.35
2024-03-24T09:28:06.886Z,9.23
2024-03-24T09:29:07.102Z,9.18
2024-03-24T09:30:07.050Z,9.05
2024-03-24T09:31:07.039Z,9.01
2024-03-24T09:32:06.972Z,8.86
2024-03-24T09:33:06.910Z,8.78
2024-03-24T09:34:06.917Z,8.78
2024-03-24T09:35:13.133Z,8.76
2024-03-24T09:36:07.790Z,8.79
2024-03-24T09:37:06.774Z,8.91
2024-03-24T09:38:06.775Z,8.94
2024-03-24T09:39:06.776Z,8.97
2024-03-24T09:40:06.743Z,9.04
2024-03-24T09:41:07.706Z,9.15
2024-03-24T09:42:06.715Z,9.25
2024-03-24T09:43:06.786Z,9.35
2024-03-24T09:44:06.777Z,9.38
2024-03-24T09:45:06.659Z,9.34
2024-03-24T09:46:06.645Z,9.34
2024-03-24T09:47:06.676Z,9.42
2024-03-24T09:48:06.607Z,9.60
2024-03-24T09:49:06.686Z,9.68
2024-03-24T09:50:06.654Z,9.68
2024-03-24T09:51:06.590Z,9.58
2024-03-24T09:52:06.578Z,9.34
2024-03-24T09:53:06.674Z,9.16
2024-03-24T09:54:06.564Z,9.01
2024-03-24T09:55:06.576Z,8.93
2024-03-24T09:56:06.535Z,8.90
2024-03-24T09:57:07.489Z,8.84
2024-03-24T09:58:10.815Z,8.76
2024-03-24T09:59:07.465Z,8.69
2024-03-24T10:00:06.511Z,8.66
2024-03-24T10:01:06.472Z,8.68
2024-03-24T10:02:06.518Z,8.71
2024-03-24T10:03:06.603Z,8.75
2024-03-24T10:04:06.377Z,8.75
2024-03-24T10:05:06.381Z,8.69
2024-03-24T10:06:06.352Z,8.66
2024-03-24T10:07:06.363Z,8.60
2024-03-24T10:08:06.334Z,8.55
2024-03-24T10:09:06.508Z,8.51
2024-03-24T10:10:06.367Z,8.50
2024-03-24T10:11:06.324Z,8.48
2024-03-24T10:12:06.368Z,8.42
2024-03-24T10:13:06.278Z,8.33
2024-03-24T10:14:06.285Z,8.26
2024-03-24T10:15:06.277Z,8.22
2024-03-24T10:16:06.264Z,8.18
2024-03-24T10:17:06.252Z,8.14
2024-03-24T10:18:06.230Z,8.04
2024-03-24T10:19:06.183Z,8.04
2024-03-24T10:20:06.154Z,8.04
2024-03-24T10:21:06.191Z,8.04
2024-03-24T10:22:06.141Z,8.03
2024-03-24T10:23:06.174Z,8.02
2024-03-24T10:24:06.198Z,8.03
2024-03-24T10:25:06.189Z,8.03
2024-03-24T10:26:06.091Z,8.02
2024-03-24T10:27:06.196Z,8.00
2024-03-24T10:28:06.179Z,7.97
2024-03-24T10:29:06.076Z,7.96
2024-03-24T10:30:06.025Z,7.92
2024-03-24T10:31:06.131Z,7.96
2024-03-24T10:32:08.875Z,7.97
2024-03-24T10:33:07.079Z,7.99
2024-03-24T10:34:05.959Z,8.00
2024-03-24T10:35:05.978Z,8.07
2024-03-24T10:36:06.080Z,8.25
2024-03-24T10:37:05.948Z,8.50
2024-03-24T10:38:05.936Z,8.86
2024-03-24T10:39:06.186Z,9.13
2024-03-24T10:40:05.979Z,9.40
2024-03-24T10:41:05.866Z,9.66
2024-03-24T10:42:05.953Z,9.73
2024-03-24T10:43:05.889Z,9.81
2024-03-24T10:44:05.947Z,10.00
2024-03-24T10:45:05.893Z,10.24
2024-03-24T10:46:05.842Z,10.30
2024-03-24T10:47:05.801Z,10.39
2024-03-24T10:48:05.780Z,10.44
2024-03-24T10:49:05.775Z,10.36
2024-03-24T10:50:05.763Z,10.30
2024-03-24T10:51:05.920Z,10.25
2024-03-24T10:52:05.723Z,10.07
2024-03-24T10:53:05.707Z,9.96
2024-03-24T10:54:05.774Z,9.91
2024-03-24T10:55:05.772Z,9.81
2024-03-24T10:56:05.753Z,9.63
2024-03-24T10:57:05.661Z,9.46
2024-03-24T10:58:05.755Z,9.38
2024-03-24T10:59:06.142Z,9.39
2024-03-24T11:00:05.591Z,9.45
2024-03-24T11:01:05.736Z,9.58
2024-03-24T11:02:05.644Z,9.67
2024-03-24T11:03:05.802Z,9.66
2024-03-24T11:04:05.565Z,9.63
2024-03-24T11:05:05.711Z,9.63
2024-03-24T11:06:05.510Z,9.66
2024-03-24T11:07:05.543Z,9.56
2024-03-24T11:08:05.478Z,9.45
2024-03-24T11:09:05.536Z,9.40
2024-03-24T11:10:05.471Z,9.43
2024-03-24T11:11:05.489Z,9.43
2024-03-24T11:12:05.475Z,9.45
2024-03-24T11:13:05.520Z,9.40
2024-03-24T11:14:05.428Z,9.35
2024-03-24T11:15:05.394Z,9.20
2024-03-24T11:16:05.374Z,9.04
2024-03-24T11:17:05.381Z,8.94
2024-03-24T11:18:05.533Z,8.83
2024-03-24T11:19:05.357Z,8.71
2024-03-24T11:20:05.493Z,8.62
2024-03-24T11:21:05.455Z,8.62
2024-03-24T11:22:05.452Z,8.62
2024-03-24T11:23:05.279Z,8.63
2024-03-24T11:24:05.318Z,8.68
2024-03-24T11:25:05.312Z,8.75
2024-03-24T11:26:05.316Z,8.87
2024-03-24T11:27:05.247Z,9.01
2024-03-24T11:28:05.309Z,9.18
2024-03-24T11:29:05.276Z,9.24
2024-03-24T11:30:05.255Z,9.28
2024-03-24T11:31:05.271Z,9.40
2024-03-24T11:32:05.278Z,9.49
2024-03-24T11:33:05.330Z,9.64
2024-03-24T11:34:05.183Z,9.76
2024-03-24T11:35:05.246Z,9.89
2024-03-24T11:36:05.081Z,9.91
2024-03-24T11:37:05.096Z,9.91
2024-03-24T11:38:05.083Z,10.01
2024-03-24T11:39:05.149Z,10.06
2024-03-24T11:40:05.044Z,10.12
2024-03-24T11:41:05.207Z,10.14
2024-03-24T11:42:05.045Z,10.21
2024-03-24T11:43:05.048Z,10.19
2024-03-24T11:44:04.982Z,10.18
2024-03-24T11:45:04.961Z,10.19
2024-03-24T11:46:04.949Z,10.17
2024-03-24T11:47:05.021Z,10.17
2024-03-24T11:48:04.927Z,10.09
2024-03-24T11:49:04.964Z,10.09
2024-03-24T11:50:05.002Z,10.06
2024-03-24T11:51:05.007Z,10.10
2024-03-24T11:52:04.912Z,10.18
2024-03-24T11:53:05.010Z,10.24
2024-03-24T11:54:04.834Z,10.34
2024-03-24T11:55:04.914Z,10.62
2024-03-24T11:56:04.850Z,11.03
2024-03-24T11:57:04.833Z,11.75
2024-03-24T11:58:04.795Z,11.90
2024-03-24T11:59:04.765Z,12.06
2024-03-24T12:00:04.779Z,12.62
2024-03-24T12:01:04.776Z,12.74
2024-03-24T12:02:04.823Z,12.99
2024-03-24T12:03:04.719Z,13.09
2024-03-24T12:04:04.750Z,12.96
2024-03-24T12:05:04.717Z,12.71
2024-03-24T12:06:04.729Z,12.46
2024-03-24T12:07:04.669Z,12.29
2024-03-24T12:08:04.671Z,11.78
2024-03-24T12:09:04.633Z,11.46
2024-03-24T12:10:04.650Z,11.13
2024-03-24T12:11:04.632Z,10.89
2024-03-24T12:12:04.633Z,10.68
2024-03-24T12:13:04.614Z,10.53
2024-03-24T12:14:04.539Z,10.32
2024-03-24T12:15:04.580Z,10.19
2024-03-24T12:16:04.604Z,10.06
2024-03-24T12:17:05.151Z,9.91
2024-03-24T12:18:04.779Z,9.86
2024-03-24T12:19:04.475Z,9.83
2024-03-24T12:20:04.506Z,9.81
2024-03-24T12:21:04.523Z,9.76
2024-03-24T12:22:04.440Z,9.71
2024-03-24T12:23:04.458Z,9.63
2024-03-24T12:24:04.459Z,9.82
2024-03-24T12:25:04.481Z,10.19
2024-03-24T12:26:04.376Z,10.32
2024-03-24T12:27:04.399Z,10.30
2024-03-24T12:28:04.409Z,10.36
2024-03-24T12:29:04.366Z,10.21
2024-03-24T12:30:04.352Z,9.93
2024-03-24T12:31:04.309Z,9.78
2024-03-24T12:32:04.279Z,9.86
2024-03-24T12:33:04.306Z,10.01
2024-03-24T12:34:04.285Z,10.00
2024-03-24T12:35:04.246Z,9.97
2024-03-24T12:36:04.295Z,9.79
2024-03-24T12:37:04.231Z,9.61
2024-03-24T12:38:04.219Z,9.48
2024-03-24T12:39:04.217Z,9.38
2024-03-24T12:40:04.254Z,9.24
2024-03-24T12:41:04.159Z,9.24
2024-03-24T12:42:04.139Z,9.25
2024-03-24T12:43:04.138Z,9.21
2024-03-24T12:44:04.156Z,9.18
2024-03-24T12:45:04.147Z,9.12
2024-03-24T12:46:04.177Z,9.10
2024-03-24T12:47:04.071Z,9.13
2024-03-24T12:48:04.161Z,9.13
2024-03-24T12:49:04.064Z,9.13
2024-03-24T12:50:17.306Z,9.12
2024-03-24T12:51:05.022Z,9.06
2024-03-24T12:52:03.993Z,9.04
2024-03-24T12:53:03.992Z,9.02
2024-03-24T12:54:03.976Z,9.02
2024-03-24T12:55:04.016Z,9.09
2024-03-24T12:56:03.945Z,9.15
2024-03-24T12:57:03.951Z,9.21
2024-03-24T12:58:03.915Z,9.18
2024-03-24T12:59:03.917Z,9.16
2024-03-24T13:00:03.872Z,9.13
2024-03-24T13:01:03.892Z,9.06
2024-03-24T13:02:03.881Z,8.93
2024-03-24T13:03:03.892Z,8.88
2024-03-24T13:04:03.842Z,8.84
2024-03-24T13:05:03.853Z,8.84
2024-03-24T13:06:04.720Z,8.76
2024-03-24T13:07:03.787Z,8.72
2024-03-24T13:08:04.042Z,8.79
2024-03-24T13:09:03.752Z,8.86
2024-03-24T13:10:03.788Z,8.90
2024-03-24T13:11:12.065Z,8.96
2024-03-24T13:12:04.754Z,9.13
2024-03-24T13:13:03.739Z,9.39
2024-03-24T13:14:03.682Z,9.70
2024-03-24T13:15:03.711Z,9.91
2024-03-24T13:16:03.639Z,10.28